createdAt,value
2019-02-07T00:00:41.157Z,955.44
2019-02-07T00:01:41.138Z,955.4
2019-02-07T00:02:41.117Z,955.45
2019-02-07T00:03:41.097Z,955.36
2019-02-07T00:04:41.077Z,955.38
2019-02-07T00:05:41.166Z,955.39
2019-02-07T00:06:41.035Z,955.35
2019-02-07T00:07:41.017Z,955.36
2019-02-07T00:08:40.999Z,955.34
2019-02-07T00:09:40.976Z,955.31
2019-02-07T00:10:40.956Z,955.29
2019-02-07T00:11:40.938Z,955.3
2019-02-07T00:12:40.920Z,955.33
2019-02-07T00:13:40.898Z,955.3
2019-02-07T00:14:40.882Z,955.32
2019-02-07T00:15:40.863Z,955.29
2019-02-07T00:16:40.840Z,955.26
2019-02-07T00:17:40.820Z,955.25
2019-02-07T00:18:40.799Z,955.22
2019-02-07T00:19:40.784Z,955.19
2019-02-07T00:20:40.759Z,955.17
2019-02-07T00:21:40.744Z,955.14
2019-02-07T00:22:40.720Z,955.15
2019-02-07T00:23:40.701Z,955.06
2019-02-07T00:24:42.666Z,955.12
2019-02-07T00:25:40.661Z,955.04
2019-02-07T00:26:40.641Z,955.07
2019-02-07T00:27:40.621Z,955.05
2019-02-07T00:28:40.602Z,955.03
2019-02-07T00:29:40.582Z,954.99
2019-02-07T00:30:40.562Z,954.94
2019-02-07T00:31:40.542Z,954.98
2019-02-07T00:32:40.523Z,954.95
2019-02-07T00:33:40.503Z,954.92
2019-02-07T00:34:40.486Z,954.92
2019-02-07T00:35:40.462Z,954.91
2019-02-07T00:36:40.442Z,954.93
2019-02-07T00:37:40.422Z,954.91
2019-02-07T00:38:40.403Z,954.81
2019-02-07T00:39:40.383Z,954.85
2019-02-07T00:40:40.364Z,954.93
2019-02-07T00:41:40.344Z,954.86
2019-02-07T00:42:40.326Z,954.81
2019-02-07T00:43:40.349Z,954.82
2019-02-07T00:44:50.195Z,954.87
2019-02-07T00:45:40.265Z,954.86
2019-02-07T00:46:40.246Z,954.78
2019-02-07T00:47:40.224Z,954.85
2019-02-07T00:48:40.206Z,954.8
2019-02-07T00:49:40.184Z,954.78
2019-02-07T00:50:40.164Z,954.77
2019-02-07T00:51:40.147Z,954.76
2019-02-07T00:52:40.126Z,954.74
2019-02-07T00:53:40.106Z,954.73
2019-02-07T00:54:40.093Z,954.77
2019-02-07T00:55:40.069Z,954.68
2019-02-07T00:56:40.055Z,954.64
2019-02-07T00:57:40.030Z,954.69
2019-02-07T00:58:40.010Z,954.68
2019-02-07T00:59:39.988Z,954.73
2019-02-07T01:00:39.967Z,954.72
2019-02-07T01:01:39.949Z,954.73
2019-02-07T01:02:39.931Z,954.68
2019-02-07T01:03:39.909Z,954.7
2019-02-07T01:04:39.888Z,954.73
2019-02-07T01:05:39.869Z,954.72
2019-02-07T01:06:39.850Z,954.76
2019-02-07T01:07:39.833Z,954.78
2019-02-07T01:08:39.810Z,954.74
2019-02-07T01:09:39.793Z,954.83
2019-02-07T01:10:39.771Z,954.74
2019-02-07T01:11:39.750Z,954.77
2019-02-07T01:12:39.731Z,954.75
2019-02-07T01:13:39.713Z,954.77
2019-02-07T01:14:39.693Z,954.78
2019-02-07T01:15:39.672Z,954.74
2019-02-07T01:16:39.654Z,954.75
2019-02-07T01:17:39.634Z,954.74
2019-02-07T01:18:39.614Z,954.67
2019-02-07T01:19:39.594Z,954.71
2019-02-07T01:20:39.573Z,954.66
2019-02-07T01:21:39.554Z,954.69
2019-02-07T01:22:39.533Z,954.7
2019-02-07T01:23:39.513Z,954.64
2019-02-07T01:24:39.502Z,954.68
2019-02-07T01:25:39.475Z,954.66
2019-02-07T01:26:39.456Z,954.63
2019-02-07T01:27:39.435Z,954.64
2019-02-07T01:28:39.417Z,954.57
2019-02-07T01:29:39.398Z,954.55
2019-02-07T01:30:39.376Z,954.57
2019-02-07T01:31:39.358Z,954.54
2019-02-07T01:32:39.337Z,954.5
2019-02-07T01:33:39.317Z,954.47
2019-02-07T01:34:39.297Z,954.47
2019-02-07T01:35:39.280Z,954.42
2019-02-07T01:36:39.258Z,954.37
2019-02-07T01:37:39.238Z,954.39
2019-02-07T01:38:39.219Z,954.35
2019-02-07T01:39:39.199Z,954.32
2019-02-07T01:40:39.180Z,954.33
2019-02-07T01:41:39.160Z,954.29
2019-02-07T01:42:39.140Z,954.21
2019-02-07T01:43:39.121Z,954.2
2019-02-07T01:44:39.100Z,954.21
2019-02-07T01:45:39.080Z,954.09
2019-02-07T01:46:39.095Z,954.12
2019-02-07T01:47:39.043Z,954.07
2019-02-07T01:48:39.021Z,954.01
2019-02-07T01:49:39.001Z,954
2019-02-07T01:50:38.983Z,953.98
2019-02-07T01:51:38.963Z,953.98
2019-02-07T01:52:38.946Z,953.95
2019-02-07T01:53:38.925Z,953.93
2019-02-07T01:54:38.909Z,953.87
2019-02-07T01:55:38.883Z,953.86
2019-02-07T01:56:38.865Z,953.86
2019-02-07T01:57:38.846Z,953.81
2019-02-07T01:58:38.825Z,953.81
2019-02-07T01:59:38.807Z,953.78
2019-02-07T02:00:38.786Z,953.74
2019-02-07T02:01:38.770Z,953.74
2019-02-07T02:02:38.747Z,953.69
2019-02-07T02:03:38.726Z,953.69
2019-02-07T02:04:38.707Z,953.62
2019-02-07T02:05:38.688Z,953.59
2019-02-07T02:06:38.667Z,953.54
2019-02-07T02:07:38.647Z,953.54
2019-02-07T02:08:38.647Z,953.49
2019-02-07T02:09:38.609Z,953.53
2019-02-07T02:10:38.589Z,953.49
2019-02-07T02:11:38.568Z,953.47
2019-02-07T02:12:38.550Z,953.39
2019-02-07T02:13:38.528Z,953.47
2019-02-07T02:14:38.509Z,953.36
2019-02-07T02:15:38.489Z,953.33
2019-02-07T02:16:38.470Z,953.33
2019-02-07T02:17:38.449Z,953.31
2019-02-07T02:18:38.480Z,953.24
2019-02-07T02:19:38.411Z,953.23
2019-02-07T02:20:38.392Z,953.17
2019-02-07T02:21:38.370Z,953.15
2019-02-07T02:22:38.351Z,953.12
2019-02-07T02:23:38.332Z,953.14
2019-02-07T02:24:38.312Z,953.09
2019-02-07T02:25:38.291Z,953.09
2019-02-07T02:26:38.273Z,953.04
2019-02-07T02:27:38.254Z,953.05
2019-02-07T02:28:38.232Z,953.04
2019-02-07T02:29:38.214Z,952.95
2019-02-07T02:30:38.208Z,952.97
2019-02-07T02:31:38.180Z,952.94
2019-02-07T02:32:38.156Z,952.93
2019-02-07T02:33:38.135Z,952.93
2019-02-07T02:34:38.118Z,952.98
2019-02-07T02:35:38.095Z,952.93
2019-02-07T02:36:38.077Z,952.91
2019-02-07T02:37:38.057Z,952.92
2019-02-07T02:38:38.040Z,952.87
2019-02-07T02:39:38.022Z,952.87
2019-02-07T02:40:37.998Z,952.8
2019-02-07T02:41:37.979Z,952.88
2019-02-07T02:42:37.959Z,952.93
2019-02-07T02:43:37.938Z,952.87
2019-02-07T02:44:37.919Z,952.93
2019-02-07T02:45:38.093Z,952.95
2019-02-07T02:46:37.881Z,952.87
2019-02-07T02:47:37.861Z,952.9
2019-02-07T02:48:37.841Z,952.84
2019-02-07T02:49:37.824Z,952.89
2019-02-07T02:50:37.804Z,952.87
2019-02-07T02:51:37.782Z,952.87
2019-02-07T02:52:40.236Z,952.8
2019-02-07T02:53:37.746Z,952.81
2019-02-07T02:54:37.727Z,952.73
2019-02-07T02:55:37.709Z,952.78
2019-02-07T02:56:37.686Z,952.78
2019-02-07T02:57:37.668Z,952.78
2019-02-07T02:58:37.648Z,952.7
2019-02-07T02:59:37.630Z,952.68
2019-02-07T03:00:37.609Z,952.72
2019-02-07T03:01:37.590Z,952.7
2019-02-07T03:02:37.571Z,952.68
2019-02-07T03:03:37.552Z,952.69
2019-02-07T03:04:37.533Z,952.64
2019-02-07T03:05:37.517Z,952.63
2019-02-07T03:06:37.494Z,952.61
2019-02-07T03:07:37.474Z,952.6
2019-02-07T03:08:37.455Z,952.6
2019-02-07T03:09:37.437Z,952.53
2019-02-07T03:10:37.430Z,952.52
2019-02-07T03:11:37.399Z,952.54
2019-02-07T03:12:37.378Z,952.5
2019-02-07T03:13:37.360Z,952.45
2019-02-07T03:14:37.342Z,952.43
2019-02-07T03:15:48.679Z,952.45
2019-02-07T03:16:37.303Z,952.4
2019-02-07T03:17:37.282Z,952.38
2019-02-07T03:18:37.264Z,952.3
2019-02-07T03:19:37.245Z,952.37
2019-02-07T03:20:37.224Z,952.29
2019-02-07T03:21:37.209Z,952.21
2019-02-07T03:22:37.187Z,952.24
2019-02-07T03:23:37.167Z,952.18
2019-02-07T03:24:37.148Z,952.11
2019-02-07T03:25:37.130Z,952.13
2019-02-07T03:26:37.110Z,952.13
2019-02-07T03:27:37.157Z,952.12
2019-02-07T03:28:37.073Z,952.11
2019-02-07T03:29:37.054Z,952.09
2019-02-07T03:30:37.035Z,952.08
2019-02-07T03:31:37.024Z,952.04
2019-02-07T03:32:36.999Z,952.06
2019-02-07T03:33:36.979Z,952.08
2019-02-07T03:34:36.957Z,952.04
2019-02-07T03:35:36.940Z,952.01
2019-02-07T03:36:36.920Z,952.12
2019-02-07T03:37:36.901Z,952.13
2019-02-07T03:38:36.881Z,952.09
2019-02-07T03:39:36.864Z,952.1
2019-02-07T03:40:36.845Z,952.12
2019-02-07T03:41:36.824Z,952.16
2019-02-07T03:42:36.805Z,952.21
2019-02-07T03:43:36.787Z,952.21
2019-02-07T03:44:36.770Z,952.23
2019-02-07T03:45:36.748Z,952.22
2019-02-07T03:46:36.729Z,952.22
2019-02-07T03:47:36.710Z,952.24
2019-02-07T03:48:36.694Z,952.22
2019-02-07T03:49:36.673Z,952.18
2019-02-07T03:50:36.655Z,952.2
2019-02-07T03:51:36.635Z,952.21
2019-02-07T03:52:36.617Z,952.17
2019-02-07T03:53:36.598Z,952.14
2019-02-07T03:54:36.579Z,952.08
2019-02-07T03:55:36.558Z,952
2019-02-07T03:56:36.539Z,951.99
2019-02-07T03:57:36.519Z,951.93
2019-02-07T03:58:36.502Z,951.88
2019-02-07T03:59:36.483Z,951.89
2019-02-07T04:00:36.463Z,951.83
2019-02-07T04:01:36.445Z,951.75
2019-02-07T04:02:36.427Z,951.78
2019-02-07T04:03:36.408Z,951.8
2019-02-07T04:04:36.387Z,951.73
2019-02-07T04:05:36.367Z,951.72
2019-02-07T04:06:36.349Z,951.74
2019-02-07T04:07:36.329Z,951.76
2019-02-07T04:08:36.310Z,951.81
2019-02-07T04:09:36.295Z,951.76
2019-02-07T04:10:36.272Z,951.77
2019-02-07T04:11:36.253Z,951.83
2019-02-07T04:12:36.234Z,951.83
2019-02-07T04:13:36.215Z,951.78
2019-02-07T04:14:36.195Z,951.75
2019-02-07T04:15:36.176Z,951.79
2019-02-07T04:16:36.160Z,951.78
2019-02-07T04:17:36.140Z,951.75
2019-02-07T04:18:36.119Z,951.76
2019-02-07T04:19:36.100Z,951.78
2019-02-07T04:20:36.085Z,951.73
2019-02-07T04:21:36.060Z,951.74
2019-02-07T04:22:36.042Z,951.83
2019-02-07T04:23:36.023Z,951.84
2019-02-07T04:24:36.004Z,951.78
2019-02-07T04:25:35.987Z,951.83
2019-02-07T04:26:35.966Z,951.87
2019-02-07T04:27:35.949Z,951.91
2019-02-07T04:28:35.926Z,951.92
2019-02-07T04:29:35.905Z,951.87
2019-02-07T04:30:35.888Z,951.85
2019-02-07T04:31:35.868Z,951.86
2019-02-07T04:32:35.849Z,951.84
2019-02-07T04:33:35.830Z,951.8
2019-02-07T04:34:35.811Z,951.75
2019-02-07T04:35:35.792Z,951.76
2019-02-07T04:36:35.772Z,951.75
2019-02-07T04:37:35.753Z,951.77
2019-02-07T04:38:35.734Z,951.75
2019-02-07T04:39:35.715Z,951.76
2019-02-07T04:40:35.695Z,951.73
2019-02-07T04:41:35.677Z,951.68
2019-02-07T04:42:35.657Z,951.58
2019-02-07T04:43:35.637Z,951.58
2019-02-07T04:44:35.617Z,951.6
2019-02-07T04:45:35.598Z,951.57
2019-02-07T04:46:35.579Z,951.54
2019-02-07T04:47:35.558Z,951.52
2019-02-07T04:48:35.540Z,951.47
2019-02-07T04:49:35.522Z,951.42
2019-02-07T04:50:35.501Z,951.51
2019-02-07T04:51:35.484Z,951.46
2019-02-07T04:52:35.467Z,951.52
2019-02-07T04:53:35.452Z,951.57
2019-02-07T04:54:35.423Z,951.47
2019-02-07T04:55:35.403Z,951.47
2019-02-07T04:56:35.465Z,951.47
2019-02-07T04:57:35.363Z,951.44
2019-02-07T04:58:35.345Z,951.53
2019-02-07T04:59:35.327Z,951.52
2019-02-07T05:00:35.305Z,951.44
2019-02-07T05:01:35.285Z,951.47
2019-02-07T05:02:35.268Z,951.49
2019-02-07T05:03:35.248Z,951.48
2019-02-07T05:04:35.229Z,951.38
2019-02-07T05:05:35.206Z,951.5
2019-02-07T05:06:35.191Z,951.49
2019-02-07T05:07:35.172Z,951.48
2019-02-07T05:08:35.149Z,951.54
2019-02-07T05:09:35.131Z,951.5
2019-02-07T05:10:35.109Z,951.54
2019-02-07T05:11:35.090Z,951.5
2019-02-07T05:12:35.071Z,951.52
2019-02-07T05:13:35.053Z,951.57
2019-02-07T05:14:35.031Z,951.58
2019-02-07T05:15:35.011Z,951.61
2019-02-07T05:16:39.372Z,951.55
2019-02-07T05:17:34.970Z,951.57
2019-02-07T05:18:34.954Z,951.52
2019-02-07T05:19:34.932Z,951.56
2019-02-07T05:20:34.912Z,951.53
2019-02-07T05:21:34.892Z,951.52
2019-02-07T05:22:34.874Z,951.5
2019-02-07T05:23:34.852Z,951.44
2019-02-07T05:24:34.832Z,951.41
2019-02-07T05:25:34.816Z,951.4
2019-02-07T05:26:34.794Z,951.37
2019-02-07T05:27:35.115Z,951.27
2019-02-07T05:28:34.755Z,951.26
2019-02-07T05:29:34.735Z,951.32
2019-02-07T05:30:34.720Z,951.28
2019-02-07T05:31:34.695Z,951.26
2019-02-07T05:32:36.197Z,951.17
2019-02-07T05:33:34.656Z,951.22
2019-02-07T05:34:34.635Z,951.24
2019-02-07T05:35:34.615Z,951.19
2019-02-07T05:36:34.595Z,951.2
2019-02-07T05:37:34.576Z,951.15
2019-02-07T05:38:34.555Z,951.22
2019-02-07T05:39:34.538Z,951.2
2019-02-07T05:40:34.517Z,951.17
2019-02-07T05:41:34.496Z,951.13
2019-02-07T05:42:34.476Z,951.12
2019-02-07T05:43:34.457Z,951.09
2019-02-07T05:44:34.439Z,951.09
2019-02-07T05:45:34.416Z,951.05
2019-02-07T05:46:34.396Z,951.06
2019-02-07T05:47:34.378Z,950.98
2019-02-07T05:48:34.357Z,951.09
2019-02-07T05:49:34.338Z,951.09
2019-02-07T05:50:34.317Z,951.06
2019-02-07T05:51:34.297Z,951.01
2019-02-07T05:52:34.279Z,950.97
2019-02-07T05:53:34.266Z,951.06
2019-02-07T05:54:34.239Z,950.96
2019-02-07T05:55:34.218Z,950.91
2019-02-07T05:56:34.450Z,950.96
2019-02-07T05:57:34.179Z,950.96
2019-02-07T05:58:34.158Z,950.94
2019-02-07T05:59:34.140Z,950.92
2019-02-07T06:00:34.118Z,950.93
2019-02-07T06:01:34.099Z,950.92
2019-02-07T06:02:34.077Z,950.92
2019-02-07T06:03:34.059Z,950.85
2019-02-07T06:04:34.036Z,950.87
2019-02-07T06:05:34.018Z,950.84
2019-02-07T06:06:33.999Z,950.86
2019-02-07T06:07:33.981Z,950.82
2019-02-07T06:08:33.958Z,950.86
2019-02-07T06:09:33.937Z,950.81
2019-02-07T06:10:33.919Z,950.73
2019-02-07T06:11:33.898Z,950.85
2019-02-07T06:12:33.879Z,950.7
2019-02-07T06:13:33.859Z,950.72
2019-02-07T06:14:33.838Z,950.76
2019-02-07T06:15:33.817Z,950.76
2019-02-07T06:16:33.799Z,950.64
2019-02-07T06:17:33.779Z,950.74
2019-02-07T06:18:33.759Z,950.74
2019-02-07T06:19:33.739Z,950.65
2019-02-07T06:20:33.719Z,950.68
2019-02-07T06:21:33.698Z,950.67
2019-02-07T06:22:33.681Z,950.65
2019-02-07T06:23:33.659Z,950.61
2019-02-07T06:24:33.640Z,950.52
2019-02-07T06:25:33.621Z,950.58
2019-02-07T06:26:33.601Z,950.59
2019-02-07T06:27:33.578Z,950.55
2019-02-07T06:28:33.558Z,950.56
2019-02-07T06:29:33.539Z,950.6
2019-02-07T06:30:33.519Z,950.58
2019-02-07T06:31:33.501Z,950.57
2019-02-07T06:32:33.479Z,950.58
2019-02-07T06:33:33.458Z,950.68
2019-02-07T06:34:33.439Z,950.59
2019-02-07T06:35:33.421Z,950.62
2019-02-07T06:36:33.400Z,950.67
2019-02-07T06:37:33.380Z,950.51
2019-02-07T06:38:33.361Z,950.6
2019-02-07T06:39:33.340Z,950.55
2019-02-07T06:40:33.320Z,950.5
2019-02-07T06:41:33.300Z,950.47
2019-02-07T06:42:33.281Z,950.43
2019-02-07T06:43:33.262Z,950.44
2019-02-07T06:44:33.241Z,950.42
2019-02-07T06:45:33.221Z,950.36
2019-02-07T06:46:33.202Z,950.35
2019-02-07T06:47:33.181Z,950.29
2019-02-07T06:48:33.162Z,950.32
2019-02-07T06:49:33.142Z,950.36
2019-02-07T06:50:33.122Z,950.33
2019-02-07T06:51:33.103Z,950.38
2019-02-07T06:52:33.082Z,950.39
2019-02-07T06:53:33.063Z,950.39
2019-02-07T06:54:33.042Z,950.47
2019-02-07T06:55:33.023Z,950.53
2019-02-07T06:56:33.003Z,950.48
2019-02-07T06:57:32.984Z,950.56
2019-02-07T06:58:32.963Z,950.65
2019-02-07T06:59:32.942Z,950.49
2019-02-07T07:00:32.924Z,950.53
2019-02-07T07:01:32.905Z,950.56
2019-02-07T07:02:32.884Z,950.44
2019-02-07T07:03:32.864Z,950.46
2019-02-07T07:04:32.846Z,950.49
2019-02-07T07:05:32.826Z,950.36
2019-02-07T07:06:32.845Z,950.45
2019-02-07T07:07:32.785Z,950.27
2019-02-07T07:08:32.766Z,950.28
2019-02-07T07:09:32.745Z,950.31
2019-02-07T07:10:32.726Z,950.28
2019-02-07T07:11:32.707Z,950.32
2019-02-07T07:12:32.690Z,950.24
2019-02-07T07:13:32.667Z,950.27
2019-02-07T07:14:32.648Z,950.25
2019-02-07T07:15:32.628Z,950.22
2019-02-07T07:16:32.609Z,950.21
2019-02-07T07:17:32.588Z,950.18
2019-02-07T07:18:32.570Z,950.12
2019-02-07T07:19:32.553Z,950.11
2019-02-07T07:20:32.532Z,950.21
2019-02-07T07:21:32.512Z,950.21
2019-02-07T07:22:32.641Z,950.17
2019-02-07T07:23:32.473Z,950.25
2019-02-07T07:24:32.452Z,950.27
2019-02-07T07:25:32.433Z,950.23
2019-02-07T07:26:32.415Z,950.23
2019-02-07T07:27:32.395Z,950.29
2019-02-07T07:28:32.376Z,950.3
2019-02-07T07:29:32.355Z,950.26
2019-02-07T07:30:32.336Z,950.21
2019-02-07T07:31:32.316Z,950.19
2019-02-07T07:32:32.297Z,950.24
2019-02-07T07:33:32.283Z,950.16
2019-02-07T07:34:32.259Z,950.12
2019-02-07T07:35:32.238Z,950.18
2019-02-07T07:36:32.220Z,950.18
2019-02-07T07:37:32.204Z,950.1
2019-02-07T07:38:32.181Z,950.01
2019-02-07T07:39:32.160Z,949.96
2019-02-07T07:40:32.142Z,950.05
2019-02-07T07:41:32.122Z,950.11
2019-02-07T07:42:32.102Z,950.05
2019-02-07T07:43:32.084Z,950.03
2019-02-07T07:44:32.063Z,950.13
2019-02-07T07:45:32.048Z,950.12
2019-02-07T07:46:32.025Z,950.22
2019-02-07T07:47:35.853Z,950.23
2019-02-07T07:48:31.988Z,950.21
2019-02-07T07:49:31.969Z,950.23
2019-02-07T07:50:31.948Z,950.17
2019-02-07T07:51:31.931Z,950.21
2019-02-07T07:52:31.913Z,950.19
2019-02-07T07:53:31.890Z,950.16
2019-02-07T07:54:31.873Z,950.06
2019-02-07T07:55:31.854Z,950.17
2019-02-07T07:56:31.834Z,950.23
2019-02-07T07:57:31.815Z,950.2
2019-02-07T07:58:31.796Z,950.2
2019-02-07T07:59:31.779Z,950.17
2019-02-07T08:00:31.759Z,950.2
2019-02-07T08:01:31.738Z,950.17
2019-02-07T08:02:31.723Z,950.15
2019-02-07T08:03:31.700Z,950.13
2019-02-07T08:04:31.681Z,950.2
2019-02-07T08:05:31.662Z,950.23
2019-02-07T08:06:31.644Z,950.25
2019-02-07T08:07:31.625Z,950.27
2019-02-07T08:08:31.607Z,950.23
2019-02-07T08:09:31.586Z,950.24
2019-02-07T08:10:31.567Z,950.19
2019-02-07T08:11:31.550Z,950.2
2019-02-07T08:12:31.540Z,950.2
2019-02-07T08:13:31.511Z,950.28
2019-02-07T08:14:31.494Z,950.26
2019-02-07T08:15:31.473Z,950.24
2019-02-07T08:16:31.456Z,950.26
2019-02-07T08:17:31.438Z,950.28
2019-02-07T08:18:31.419Z,950.27
2019-02-07T08:19:31.398Z,950.22
2019-02-07T08:20:31.380Z,950.3
2019-02-07T08:21:31.363Z,950.27
2019-02-07T08:22:31.342Z,950.22
2019-02-07T08:23:31.325Z,950.23
2019-02-07T08:24:31.307Z,950.18
2019-02-07T08:25:31.289Z,950.21
2019-02-07T08:26:31.269Z,950.12
2019-02-07T08:27:31.251Z,950.24
2019-02-07T08:28:31.233Z,950.16
2019-02-07T08:29:31.213Z,950.25
2019-02-07T08:30:36.333Z,950.21
2019-02-07T08:31:31.178Z,950.25
2019-02-07T08:32:31.158Z,950.32
2019-02-07T08:33:31.139Z,950.2
2019-02-07T08:34:31.122Z,950.2
2019-02-07T08:35:31.103Z,950.07
2019-02-07T08:36:31.086Z,950.11
2019-02-07T08:37:31.067Z,950.04
2019-02-07T08:38:31.049Z,950.12
2019-02-07T08:39:31.031Z,949.98
2019-02-07T08:40:31.012Z,950.05
2019-02-07T08:41:30.993Z,950.06
2019-02-07T08:42:30.976Z,950.05
2019-02-07T08:43:30.959Z,950.1
2019-02-07T08:44:30.940Z,949.99
2019-02-07T08:45:30.968Z,950.08
2019-02-07T08:46:30.905Z,950.1
2019-02-07T08:47:30.900Z,950.05
2019-02-07T08:48:30.887Z,950.15
2019-02-07T08:49:30.851Z,950.18
2019-02-07T08:50:30.991Z,950.12
2019-02-07T08:51:30.815Z,950.08
2019-02-07T08:52:30.796Z,950.13
2019-02-07T08:53:30.779Z,949.95
2019-02-07T08:54:30.760Z,950.03
2019-02-07T08:55:30.743Z,949.96
2019-02-07T08:56:30.731Z,949.98
2019-02-07T08:57:30.706Z,950
2019-02-07T08:58:30.688Z,949.98
2019-02-07T08:59:30.671Z,950.02
2019-02-07T09:00:30.652Z,950
2019-02-07T09:01:30.635Z,950.04
2019-02-07T09:02:30.617Z,950.11
2019-02-07T09:03:30.602Z,950.13
2019-02-07T09:04:30.581Z,950.18
2019-02-07T09:05:30.564Z,950.14
2019-02-07T09:06:30.545Z,950.19
2019-02-07T09:07:32.143Z,950.35
2019-02-07T09:08:30.511Z,950.5
2019-02-07T09:09:30.492Z,950.54
2019-02-07T09:10:30.475Z,950.48
2019-02-07T09:11:30.457Z,950.44
2019-02-07T09:12:30.439Z,950.38
2019-02-07T09:13:30.421Z,950.28
2019-02-07T09:14:30.405Z,950.19
2019-02-07T09:15:30.386Z,950.21
2019-02-07T09:16:30.369Z,950.13
2019-02-07T09:17:30.349Z,950.02
2019-02-07T09:18:30.336Z,950.01
2019-02-07T09:19:30.315Z,950.02
2019-02-07T09:20:30.301Z,949.98
2019-02-07T09:21:30.279Z,949.95
2019-02-07T09:22:30.264Z,949.94
2019-02-07T09:23:30.244Z,949.83
2019-02-07T09:24:30.227Z,949.86
2019-02-07T09:25:34.172Z,949.8
2019-02-07T09:26:30.191Z,949.77
2019-02-07T09:27:30.174Z,949.75
2019-02-07T09:28:30.155Z,949.71
2019-02-07T09:29:30.138Z,949.79
2019-02-07T09:30:30.120Z,949.86
2019-02-07T09:31:30.104Z,949.84
2019-02-07T09:32:30.084Z,949.87
2019-02-07T09:33:30.068Z,949.9
2019-02-07T09:34:30.050Z,949.87
2019-02-07T09:35:30.033Z,949.95
2019-02-07T09:36:30.014Z,949.97
2019-02-07T09:37:29.997Z,949.95
2019-02-07T09:38:29.990Z,949.89
2019-02-07T09:39:29.961Z,949.96
2019-02-07T09:40:29.943Z,949.99
2019-02-07T09:41:29.925Z,950.02
2019-02-07T09:42:29.907Z,950.1
2019-02-07T09:43:29.890Z,950.12
2019-02-07T09:44:29.874Z,950.17
2019-02-07T09:45:29.854Z,950.17
2019-02-07T09:46:29.838Z,950.16
2019-02-07T09:47:29.820Z,950.14
2019-02-07T09:48:29.803Z,950.03
2019-02-07T09:49:29.786Z,950.08
2019-02-07T09:50:29.766Z,950.06
2019-02-07T09:51:29.785Z,950.05
2019-02-07T09:52:29.731Z,950.11
2019-02-07T09:53:29.714Z,950.08
2019-02-07T09:54:29.695Z,950.04
2019-02-07T09:55:29.678Z,950.1
2019-02-07T09:56:29.661Z,950.09
2019-02-07T09:57:29.643Z,950.11
2019-02-07T09:58:29.626Z,950.19
2019-02-07T09:59:29.608Z,950.11
2019-02-07T10:00:29.592Z,950.14
2019-02-07T10:01:29.571Z,950.21
2019-02-07T10:02:29.557Z,950.19
2019-02-07T10:03:29.539Z,950.2
2019-02-07T10:04:29.521Z,950.07
2019-02-07T10:05:29.502Z,950.19
2019-02-07T10:06:29.486Z,950.18
2019-02-07T10:07:29.468Z,950.12
2019-02-07T10:08:29.450Z,950.13
2019-02-07T10:09:29.434Z,950.12
2019-02-07T10:10:29.421Z,950.13
2019-02-07T10:11:29.399Z,950.1
2019-02-07T10:12:29.381Z,950.03
2019-02-07T10:13:29.365Z,950.03
2019-02-07T10:14:29.347Z,950.15
2019-02-07T10:15:29.331Z,950.08
2019-02-07T10:16:29.315Z,950
2019-02-07T10:17:29.298Z,949.97
2019-02-07T10:18:32.903Z,949.97
2019-02-07T10:19:29.265Z,949.98
2019-02-07T10:20:29.247Z,949.95
2019-02-07T10:21:29.233Z,949.94
2019-02-07T10:22:29.214Z,949.93
2019-02-07T10:23:29.196Z,950
2019-02-07T10:24:29.184Z,950.08
2019-02-07T10:25:29.162Z,950.08
2019-02-07T10:26:29.147Z,950.14
2019-02-07T10:27:29.129Z,950.14
2019-02-07T10:28:29.114Z,950.1
2019-02-07T10:29:29.097Z,950.1
2019-02-07T10:30:29.080Z,950.11
2019-02-07T10:31:29.063Z,950.14
2019-02-07T10:32:29.048Z,950.13
2019-02-07T10:33:29.032Z,950.1
2019-02-07T10:34:29.014Z,950.13
2019-02-07T10:35:28.999Z,950.14
2019-02-07T10:36:28.986Z,950.14
2019-02-07T10:37:28.964Z,950.14
2019-02-07T10:38:28.948Z,950.08
2019-02-07T10:39:28.932Z,950.12
2019-02-07T10:40:28.917Z,950.17
2019-02-07T10:41:28.900Z,950.09
2019-02-07T10:42:28.888Z,950.05
2019-02-07T10:43:28.866Z,950.03
2019-02-07T10:44:28.851Z,950.07
2019-02-07T10:45:28.833Z,949.99
2019-02-07T10:46:28.821Z,949.95
2019-02-07T10:47:30.503Z,949.94
2019-02-07T10:48:28.786Z,949.95
2019-02-07T10:49:28.835Z,949.94
2019-02-07T10:50:28.752Z,949.96
2019-02-07T10:51:28.738Z,949.95
2019-02-07T10:52:28.721Z,949.96
2019-02-07T10:53:28.705Z,950
2019-02-07T10:54:28.688Z,949.93
2019-02-07T10:55:28.677Z,949.95
2019-02-07T10:56:28.659Z,949.91
2019-02-07T10:57:28.641Z,949.88
2019-02-07T10:58:28.625Z,949.9
2019-02-07T10:59:28.609Z,949.91
2019-02-07T11:00:28.592Z,949.91
2019-02-07T11:01:28.577Z,949.96
2019-02-07T11:02:28.561Z,949.96
2019-02-07T11:03:28.544Z,949.94
2019-02-07T11:04:28.528Z,949.97
2019-02-07T11:05:28.513Z,950
2019-02-07T11:06:28.499Z,949.98
2019-02-07T11:07:28.483Z,950
2019-02-07T11:08:28.467Z,949.99
2019-02-07T11:09:28.451Z,949.94
2019-02-07T11:10:28.435Z,949.98
2019-02-07T11:11:28.420Z,949.96
2019-02-07T11:12:28.403Z,949.96
2019-02-07T11:13:28.387Z,949.9
2019-02-07T11:14:28.372Z,949.92
2019-02-07T11:15:28.355Z,949.9
2019-02-07T11:16:28.342Z,949.89
2019-02-07T11:17:28.327Z,949.91
2019-02-07T11:18:28.308Z,949.84
2019-02-07T11:19:28.297Z,949.87
2019-02-07T11:20:28.281Z,949.86
2019-02-07T11:21:28.264Z,949.88
2019-02-07T11:22:28.249Z,949.86
2019-02-07T11:23:28.233Z,949.88
2019-02-07T11:24:28.219Z,949.85
2019-02-07T11:25:28.202Z,949.83
2019-02-07T11:26:28.187Z,949.81
2019-02-07T11:27:28.172Z,949.85
2019-02-07T11:28:28.156Z,949.88
2019-02-07T11:29:28.142Z,949.92
2019-02-07T11:30:28.126Z,949.87
2019-02-07T11:31:28.111Z,949.86
2019-02-07T11:32:28.095Z,949.89
2019-02-07T11:33:28.078Z,949.89
2019-02-07T11:34:28.062Z,949.84
2019-02-07T11:35:28.047Z,949.84
2019-02-07T11:36:28.032Z,949.82
2019-02-07T11:37:28.018Z,949.87
2019-02-07T11:38:28.003Z,949.84
2019-02-07T11:39:29.726Z,949.86
2019-02-07T11:40:28.026Z,949.86
2019-02-07T11:41:27.954Z,949.85
2019-02-07T11:42:27.940Z,949.9
2019-02-07T11:43:27.922Z,949.83
2019-02-07T11:44:27.906Z,949.83
2019-02-07T11:45:27.894Z,949.86
2019-02-07T11:46:27.876Z,949.81
2019-02-07T11:47:27.861Z,949.75
2019-02-07T11:48:27.846Z,949.71
2019-02-07T11:49:27.829Z,949.73
2019-02-07T11:50:27.813Z,949.7
2019-02-07T11:51:27.798Z,949.72
2019-02-07T11:52:27.781Z,949.73
2019-02-07T11:53:27.767Z,949.68
2019-02-07T11:54:27.749Z,949.74
2019-02-07T11:55:27.736Z,949.73
2019-02-07T11:56:27.722Z,949.79
2019-02-07T11:57:27.706Z,949.71
2019-02-07T11:58:27.687Z,949.76
2019-02-07T11:59:27.672Z,949.77
2019-02-07T12:00:27.658Z,949.73
2019-02-07T12:01:27.639Z,949.81
2019-02-07T12:02:27.623Z,949.77
2019-02-07T12:03:27.606Z,949.76
2019-02-07T12:04:27.591Z,949.76
2019-02-07T12:05:27.576Z,949.81
2019-02-07T12:06:27.710Z,949.83
2019-02-07T12:07:27.543Z,949.68
2019-02-07T12:08:27.526Z,949.69
2019-02-07T12:09:27.509Z,949.66
2019-02-07T12:10:27.494Z,949.64
2019-02-07T12:11:27.480Z,949.63
2019-02-07T12:12:27.464Z,949.63
2019-02-07T12:13:27.444Z,949.61
2019-02-07T12:14:27.428Z,949.57
2019-02-07T12:15:27.412Z,949.56
2019-02-07T12:16:27.395Z,949.55
2019-02-07T12:17:27.381Z,949.53
2019-02-07T12:18:27.365Z,949.54
2019-02-07T12:19:27.347Z,949.55
2019-02-07T12:20:27.330Z,949.51
2019-02-07T12:21:27.313Z,949.51
2019-02-07T12:22:27.300Z,949.5
2019-02-07T12:23:27.280Z,949.49
2019-02-07T12:24:27.264Z,949.46
2019-02-07T12:25:27.248Z,949.51
2019-02-07T12:26:27.232Z,949.52
2019-02-07T12:27:27.214Z,949.5
2019-02-07T12:28:27.197Z,949.51
2019-02-07T12:29:27.182Z,949.49
2019-02-07T12:30:27.165Z,949.4
2019-02-07T12:31:27.148Z,949.39